sensor_id;sensor_type;location;lat;lon;timestamp;P1;durP1;ratioP1;P2;durP2;ratioP2
21299;SDS011;10809;49.476;11.016;2023-08-17T00:00:34;12.45;;;11.82;;
21299;SDS011;10809;49.476;11.016;2023-08-17T00:03:04;13.68;;;12.98;;
21299;SDS011;10809;49.476;11.016;2023-08-17T00:05:35;15.27;;;14.30;;
21299;SDS011;10809;49.476;11.016;2023-08-17T00:08:05;14.85;;;14.18;;
21299;SDS011;10809;49.476;11.016;2023-08-17T00:10:36;15.10;;;14.27;;
21299;SDS011;10809;49.476;11.016;2023-08-17T00:13:08;13.90;;;13.27;;
21299;SDS011;10809;49.476;11.016;2023-08-17T00:15:39;13.35;;;12.65;;
21299;SDS011;10809;49.476;11.016;2023-08-17T00:21:20;12.15;;;11.52;;
21299;SDS011;10809;49.476;11.016;2023-08-17T00:23:50;14.20;;;13.52;;
21299;SDS011;10809;49.476;11.016;2023-08-17T00:26:21;13.68;;;12.98;;
21299;SDS011;10809;49.476;11.016;2023-08-17T00:28:51;14.13;;;13.15;;
21299;SDS011;10809;49.476;11.016;2023-08-17T00:31:22;14.18;;;13.43;;
21299;SDS011;10809;49.476;11.016;2023-08-17T00:33:52;13.75;;;13.05;;
21299;SDS011;10809;49.476;11.016;2023-08-17T00:36:23;15.20;;;14.32;;
21299;SDS011;10809;49.476;11.016;2023-08-17T00:38:53;14.18;;;13.27;;
21299;SDS011;10809;49.476;11.016;2023-08-17T00:41:26;13.02;;;12.23;;
21299;SDS011;10809;49.476;11.016;2023-08-17T00:43:59;13.05;;;12.38;;
21299;SDS011;10809;49.476;11.016;2023-08-17T00:46:30;14.15;;;13.43;;
21299;SDS011;10809;49.476;11.016;2023-08-17T00:49:00;13.75;;;13.07;;
21299;SDS011;10809;49.476;11.016;2023-08-17T00:51:31;12.80;;;12.05;;
21299;SDS011;10809;49.476;11.016;2023-08-17T00:54:11;14.40;;;13.68;;
21299;SDS011;10809;49.476;11.016;2023-08-17T00:56:42;13.63;;;12.88;;
21299;SDS011;10809;49.476;11.016;2023-08-17T00:59:12;14.10;;;13.30;;
21299;SDS011;10809;49.476;11.016;2023-08-17T01:01:43;13.73;;;13.02;;
21299;SDS011;10809;49.476;11.016;2023-08-17T01:04:20;12.90;;;12.27;;
21299;SDS011;10809;49.476;11.016;2023-08-17T01:06:50;13.13;;;12.52;;
21299;SDS011;10809;49.476;11.016;2023-08-17T01:09:20;13.70;;;12.90;;
21299;SDS011;10809;49.476;11.016;2023-08-17T01:15:08;11.30;;;10.77;;
21299;SDS011;10809;49.476;11.016;2023-08-17T01:20:58;12.25;;;11.63;;
21299;SDS011;10809;49.476;11.016;2023-08-17T01:23:33;14.02;;;13.30;;
21299;SDS011;10809;49.476;11.016;2023-08-17T01:29:31;11.98;;;11.38;;
21299;SDS011;10809;49.476;11.016;2023-08-17T01:32:04;11.45;;;10.75;;
21299;SDS011;10809;49.476;11.016;2023-08-17T01:34:47;13.30;;;12.63;;
21299;SDS011;10809;49.476;11.016;2023-08-17T01:37:24;11.73;;;11.02;;
21299;SDS011;10809;49.476;11.016;2023-08-17T01:39:59;10.98;;;10.32;;
21299;SDS011;10809;49.476;11.016;2023-08-17T01:42:29;12.13;;;11.50;;
21299;SDS011;10809;49.476;11.016;2023-08-17T01:45:00;12.57;;;11.98;;
21299;SDS011;10809;49.476;11.016;2023-08-17T01:47:31;12.20;;;11.63;;
21299;SDS011;10809;49.476;11.016;2023-08-17T01:50:01;12.27;;;11.68;;
21299;SDS011;10809;49.476;11.016;2023-08-17T01:52:35;13.13;;;12.32;;
21299;SDS011;10809;49.476;11.016;2023-08-17T01:55:05;12.63;;;11.93;;
21299;SDS011;10809;49.476;11.016;2023-08-17T01:57:36;11.52;;;10.93;;
21299;SDS011;10809;49.476;11.016;2023-08-17T02:00:10;12.32;;;11.70;;
21299;SDS011;10809;49.476;11.016;2023-08-17T02:02:47;11.48;;;10.93;;
21299;SDS011;10809;49.476;11.016;2023-08-17T02:05:18;12.20;;;11.57;;
21299;SDS011;10809;49.476;11.016;2023-08-17T02:07:49;12.00;;;11.45;;
21299;SDS011;10809;49.476;11.016;2023-08-17T02:10:20;13.43;;;12.75;;
21299;SDS011;10809;49.476;11.016;2023-08-17T02:12:52;10.05;;;9.55;;
21299;SDS011;10809;49.476;11.016;2023-08-17T02:15:22;12.00;;;11.38;;
21299;SDS011;10809;49.476;11.016;2023-08-17T02:17:53;11.88;;;11.27;;
21299;SDS011;10809;49.476;11.016;2023-08-17T02:20:23;13.43;;;12.75;;
21299;SDS011;10809;49.476;11.016;2023-08-17T02:22:54;11.00;;;10.52;;
21299;SDS011;10809;49.476;11.016;2023-08-17T02:25:24;11.82;;;11.07;;
21299;SDS011;10809;49.476;11.016;2023-08-17T02:27:55;11.00;;;10.43;;
21299;SDS011;10809;49.476;11.016;2023-08-17T02:30:26;11.25;;;10.65;;
21299;SDS011;10809;49.476;11.016;2023-08-17T02:32:56;11.80;;;11.13;;
21299;SDS011;10809;49.476;11.016;2023-08-17T02:35:27;10.43;;;9.90;;
21299;SDS011;10809;49.476;11.016;2023-08-17T02:37:58;11.40;;;10.70;;
21299;SDS011;10809;49.476;11.016;2023-08-17T02:40:28;10.35;;;9.73;;
21299;SDS011;10809;49.476;11.016;2023-08-17T02:42:59;11.35;;;10.80;;
21299;SDS011;10809;49.476;11.016;2023-08-17T02:45:29;12.60;;;11.90;;
21299;SDS011;10809;49.476;11.016;2023-08-17T02:48:04;11.38;;;10.73;;
21299;SDS011;10809;49.476;11.016;2023-08-17T02:50:35;12.23;;;11.63;;
21299;SDS011;10809;49.476;11.016;2023-08-17T02:53:05;12.20;;;11.60;;
21299;SDS011;10809;49.476;11.016;2023-08-17T02:55:35;11.23;;;10.73;;
21299;SDS011;10809;49.476;11.016;2023-08-17T02:58:06;11.95;;;11.35;;
21299;SDS011;10809;49.476;11.016;2023-08-17T03:00:36;13.30;;;12.50;;
21299;SDS011;10809;49.476;11.016;2023-08-17T03:03:06;11.13;;;10.63;;
21299;SDS011;10809;49.476;11.016;2023-08-17T03:05:40;11.35;;;10.70;;
21299;SDS011;10809;49.476;11.016;2023-08-17T03:08:10;10.27;;;9.77;;
21299;SDS011;10809;49.476;11.016;2023-08-17T03:10:40;12.27;;;11.52;;
21299;SDS011;10809;49.476;11.016;2023-08-17T03:13:11;11.55;;;10.88;;
21299;SDS011;10809;49.476;11.016;2023-08-17T03:15:41;10.90;;;10.30;;
21299;SDS011;10809;49.476;11.016;2023-08-17T03:18:12;10.15;;;9.65;;
21299;SDS011;10809;49.476;11.016;2023-08-17T03:20:44;12.70;;;11.90;;
21299;SDS011;10809;49.476;11.016;2023-08-17T03:23:16;12.30;;;11.68;;
21299;SDS011;10809;49.476;11.016;2023-08-17T03:25:50;12.20;;;11.40;;
21299;SDS011;10809;49.476;11.016;2023-08-17T03:28:21;11.70;;;11.10;;
21299;SDS011;10809;49.476;11.016;2023-08-17T03:30:58;11.68;;;11.07;;
21299;SDS011;10809;49.476;11.016;2023-08-17T03:33:29;11.70;;;11.10;;
21299;SDS011;10809;49.476;11.016;2023-08-17T03:36:00;10.63;;;9.93;;
21299;SDS011;10809;49.476;11.016;2023-08-17T03:38:31;9.90;;;9.38;;
21299;SDS011;10809;49.476;11.016;2023-08-17T03:41:01;10.15;;;9.65;;
21299;SDS011;10809;49.476;11.016;2023-08-17T03:43:31;10.82;;;10.13;;
21299;SDS011;10809;49.476;11.016;2023-08-17T03:46:03;10.90;;;10.15;;
21299;SDS011;10809;49.476;11.016;2023-08-17T03:48:34;10.20;;;9.48;;
21299;SDS011;10809;49.476;11.016;2023-08-17T03:51:05;11.43;;;10.57;;
21299;SDS011;10809;49.476;11.016;2023-08-17T03:53:35;11.30;;;10.57;;
21299;SDS011;10809;49.476;11.016;2023-08-17T03:56:05;10.90;;;10.23;;
21299;SDS011;10809;49.476;11.016;2023-08-17T03:58:36;10.25;;;9.65;;
21299;SDS011;10809;49.476;11.016;2023-08-17T04:01:06;9.75;;;9.25;;
21299;SDS011;10809;49.476;11.016;2023-08-17T04:03:37;10.68;;;9.88;;
21299;SDS011;10809;49.476;11.016;2023-08-17T04:06:08;11.93;;;11.30;;
21299;SDS011;10809;49.476;11.016;2023-08-17T04:08:40;11.00;;;9.90;;
21299;SDS011;10809;49.476;11.016;2023-08-17T04:11:13;11.02;;;9.73;;
21299;SDS011;10809;49.476;11.016;2023-08-17T04:13:44;11.80;;;10.95;;
21299;SDS011;10809;49.476;11.016;2023-08-17T04:16:14;10.60;;;10.00;;
21299;SDS011;10809;49.476;11.016;2023-08-17T04:18:45;12.05;;;10.57;;
21299;SDS011;10809;49.476;11.016;2023-08-17T04:21:16;10.60;;;9.90;;
21299;SDS011;10809;49.476;11.016;2023-08-17T04:23:46;9.40;;;8.88;;
21299;SDS011;10809;49.476;11.016;2023-08-17T04:26:16;9.95;;;9.20;;
21299;SDS011;10809;49.476;11.016;2023-08-17T04:28:50;10.60;;;10.00;;
21299;SDS011;10809;49.476;11.016;2023-08-17T04:31:20;9.65;;;9.07;;
21299;SDS011;10809;49.476;11.016;2023-08-17T04:33:58;9.90;;;9.40;;
21299;SDS011;10809;49.476;11.016;2023-08-17T04:36:28;9.57;;;9.07;;
21299;SDS011;10809;49.476;11.016;2023-08-17T04:38:59;10.15;;;9.45;;
21299;SDS011;10809;49.476;11.016;2023-08-17T04:41:29;10.65;;;10.00;;
21299;SDS011;10809;49.476;11.016;2023-08-17T04:44:00;10.02;;;9.48;;
21299;SDS011;10809;49.476;11.016;2023-08-17T04:46:31;10.80;;;10.07;;
21299;SDS011;10809;49.476;11.016;2023-08-17T04:49:02;10.13;;;9.52;;
21299;SDS011;10809;49.476;11.016;2023-08-17T04:51:32;9.40;;;8.70;;
21299;SDS011;10809;49.476;11.016;2023-08-17T04:54:03;10.20;;;9.65;;
21299;SDS011;10809;49.476;11.016;2023-08-17T04:56:33;10.07;;;9.48;;
21299;SDS011;10809;49.476;11.016;2023-08-17T04:59:04;10.93;;;9.93;;
21299;SDS011;10809;49.476;11.016;2023-08-17T05:01:34;9.57;;;9.07;;
21299;SDS011;10809;49.476;11.016;2023-08-17T05:07:26;9.50;;;8.80;;
21299;SDS011;10809;49.476;11.016;2023-08-17T05:09:58;10.07;;;9.48;;
21299;SDS011;10809;49.476;11.016;2023-08-17T05:12:29;10.60;;;9.90;;
21299;SDS011;10809;49.476;11.016;2023-08-17T05:14:59;10.60;;;9.68;;
21299;SDS011;10809;49.476;11.016;2023-08-17T05:17:30;11.55;;;10.45;;
21299;SDS011;10809;49.476;11.016;2023-08-17T05:20:01;11.15;;;10.32;;
21299;SDS011;10809;49.476;11.016;2023-08-17T05:22:31;11.48;;;10.75;;
21299;SDS011;10809;49.476;11.016;2023-08-17T05:25:01;11.43;;;10.52;;
21299;SDS011;10809;49.476;11.016;2023-08-17T05:27:35;11.32;;;10.20;;
21299;SDS011;10809;49.476;11.016;2023-08-17T05:30:05;9.70;;;9.15;;
21299;SDS011;10809;49.476;11.016;2023-08-17T05:32:36;10.45;;;9.65;;
21299;SDS011;10809;49.476;11.016;2023-08-17T05:35:07;10.13;;;9.52;;
21299;SDS011;10809;49.476;11.016;2023-08-17T05:37:37;9.57;;;8.98;;
21299;SDS011;10809;49.476;11.016;2023-08-17T05:40:08;9.35;;;8.75;;
21299;SDS011;10809;49.476;11.016;2023-08-17T05:42:39;9.95;;;9.43;;
21299;SDS011;10809;49.476;11.016;2023-08-17T05:45:09;10.02;;;9.50;;
21299;SDS011;10809;49.476;11.016;2023-08-17T05:47:40;9.50;;;8.82;;
21299;SDS011;10809;49.476;11.016;2023-08-17T05:50:10;9.73;;;9.13;;
21299;SDS011;10809;49.476;11.016;2023-08-17T05:52:41;10.45;;;9.85;;
21299;SDS011;10809;49.476;11.016;2023-08-17T05:55:12;9.75;;;9.13;;
21299;SDS011;10809;49.476;11.016;2023-08-17T05:57:43;9.32;;;8.82;;
21299;SDS011;10809;49.476;11.016;2023-08-17T06:00:16;10.10;;;9.52;;
21299;SDS011;10809;49.476;11.016;2023-08-17T06:02:47;9.60;;;9.15;;
21299;SDS011;10809;49.476;11.016;2023-08-17T06:05:22;10.40;;;9.75;;
21299;SDS011;10809;49.476;11.016;2023-08-17T06:07:56;11.02;;;10.32;;
21299;SDS011;10809;49.476;11.016;2023-08-17T06:10:27;9.70;;;9.07;;
21299;SDS011;10809;49.476;11.016;2023-08-17T06:12:57;10.45;;;9.85;;
21299;SDS011;10809;49.476;11.016;2023-08-17T06:15:28;12.18;;;11.35;;
21299;SDS011;10809;49.476;11.016;2023-08-17T06:17:58;10.85;;;10.25;;
21299;SDS011;10809;49.476;11.016;2023-08-17T06:20:28;11.13;;;10.48;;
21299;SDS011;10809;49.476;11.016;2023-08-17T06:22:59;11.55;;;10.90;;
21299;SDS011;10809;49.476;11.016;2023-08-17T06:25:29;10.25;;;9.68;;
21299;SDS011;10809;49.476;11.016;2023-08-17T06:28:00;10.43;;;9.90;;
21299;SDS011;10809;49.476;11.016;2023-08-17T06:30:31;10.98;;;10.38;;
21299;SDS011;10809;49.476;11.016;2023-08-17T06:33:02;10.70;;;9.98;;
21299;SDS011;10809;49.476;11.016;2023-08-17T06:35:32;11.60;;;10.90;;
21299;SDS011;10809;49.476;11.016;2023-08-17T06:38:12;10.40;;;9.80;;
21299;SDS011;10809;49.476;11.016;2023-08-17T06:40:42;11.48;;;10.88;;
21299;SDS011;10809;49.476;11.016;2023-08-17T06:43:13;12.50;;;11.80;;
21299;SDS011;10809;49.476;11.016;2023-08-17T06:45:46;12.98;;;12.30;;
21299;SDS011;10809;49.476;11.016;2023-08-17T06:48:17;14.10;;;13.38;;
21299;SDS011;10809;49.476;11.016;2023-08-17T06:50:47;13.65;;;12.90;;
21299;SDS011;10809;49.476;11.016;2023-08-17T06:53:18;12.30;;;11.40;;
21299;SDS011;10809;49.476;11.016;2023-08-17T06:55:48;12.45;;;11.77;;
21299;SDS011;10809;49.476;11.016;2023-08-17T06:58:18;12.23;;;11.57;;
21299;SDS011;10809;49.476;11.016;2023-08-17T07:00:49;15.00;;;14.10;;
21299;SDS011;10809;49.476;11.016;2023-08-17T07:03:19;13.80;;;13.00;;
21299;SDS011;10809;49.476;11.016;2023-08-17T07:05:50;13.70;;;12.93;;
21299;SDS011;10809;49.476;11.016;2023-08-17T07:08:20;13.00;;;12.32;;
21299;SDS011;10809;49.476;11.016;2023-08-17T07:10:54;13.50;;;12.77;;
21299;SDS011;10809;49.476;11.016;2023-08-17T07:13:24;13.43;;;12.63;;
21299;SDS011;10809;49.476;11.016;2023-08-17T07:15:55;15.43;;;14.63;;
21299;SDS011;10809;49.476;11.016;2023-08-17T07:18:25;14.73;;;13.93;;
21299;SDS011;10809;49.476;11.016;2023-08-17T07:20:55;17.27;;;16.40;;
21299;SDS011;10809;49.476;11.016;2023-08-17T07:23:26;16.38;;;15.48;;
21299;SDS011;10809;49.476;11.016;2023-08-17T07:25:56;15.27;;;14.45;;
21299;SDS011;10809;49.476;11.016;2023-08-17T07:28:26;16.95;;;16.05;;
21299;SDS011;10809;49.476;11.016;2023-08-17T07:30:57;18.17;;;17.23;;
21299;SDS011;10809;49.476;11.016;2023-08-17T07:33:28;19.20;;;18.20;;
21299;SDS011;10809;49.476;11.016;2023-08-17T07:35:58;19.30;;;18.33;;
21299;SDS011;10809;49.476;11.016;2023-08-17T07:38:28;20.92;;;19.67;;
21299;SDS011;10809;49.476;11.016;2023-08-17T07:40:59;21.20;;;20.10;;
21299;SDS011;10809;49.476;11.016;2023-08-17T07:43:29;24.73;;;23.15;;
21299;SDS011;10809;49.476;11.016;2023-08-17T07:46:00;23.33;;;22.10;;
21299;SDS011;10809;49.476;11.016;2023-08-17T07:48:30;26.65;;;25.30;;
21299;SDS011;10809;49.476;11.016;2023-08-17T07:51:03;33.35;;;31.73;;
21299;SDS011;10809;49.476;11.016;2023-08-17T07:53:34;34.63;;;32.83;;
21299;SDS011;10809;49.476;11.016;2023-08-17T07:56:04;36.60;;;34.80;;
21299;SDS011;10809;49.476;11.016;2023-08-17T07:58:34;46.22;;;43.80;;
21299;SDS011;10809;49.476;11.016;2023-08-17T08:01:05;50.63;;;48.03;;
21299;SDS011;10809;49.476;11.016;2023-08-17T08:03:35;60.08;;;56.97;;
21299;SDS011;10809;49.476;11.016;2023-08-17T08:06:06;63.47;;;60.20;;
21299;SDS011;10809;49.476;11.016;2023-08-17T08:08:39;72.55;;;68.90;;
21299;SDS011;10809;49.476;11.016;2023-08-17T08:11:13;79.32;;;75.32;;
21299;SDS011;10809;49.476;11.016;2023-08-17T08:13:43;88.97;;;84.47;;
21299;SDS011;10809;49.476;11.016;2023-08-17T08:16:17;104.78;;;99.47;;
21299;SDS011;10809;49.476;11.016;2023-08-17T08:18:47;98.93;;;93.72;;
21299;SDS011;10809;49.476;11.016;2023-08-17T08:21:17;103.00;;;97.38;;
21299;SDS011;10809;49.476;11.016;2023-08-17T08:23:48;114.90;;;108.93;;
21299;SDS011;10809;49.476;11.016;2023-08-17T08:26:18;115.13;;;109.07;;
21299;SDS011;10809;49.476;11.016;2023-08-17T08:28:49;119.97;;;113.85;;
21299;SDS011;10809;49.476;11.016;2023-08-17T08:31:22;113.95;;;108.10;;
21299;SDS011;10809;49.476;11.016;2023-08-17T08:33:53;125.82;;;119.43;;
21299;SDS011;10809;49.476;11.016;2023-08-17T08:36:24;128.25;;;121.68;;
21299;SDS011;10809;49.476;11.016;2023-08-17T08:38:54;128.70;;;122.13;;
21299;SDS011;10809;49.476;11.016;2023-08-17T08:41:24;127.15;;;120.60;;
21299;SDS011;10809;49.476;11.016;2023-08-17T08:43:59;121.88;;;115.65;;
21299;SDS011;10809;49.476;11.016;2023-08-17T08:46:30;127.40;;;120.78;;
21299;SDS011;10809;49.476;11.016;2023-08-17T08:49:02;131.27;;;124.45;;
21299;SDS011;10809;49.476;11.016;2023-08-17T08:51:37;124.63;;;118.25;;
21299;SDS011;10809;49.476;11.016;2023-08-17T08:54:12;126.20;;;119.75;;
21299;SDS011;10809;49.476;11.016;2023-08-17T08:56:44;119.13;;;113.00;;
21299;SDS011;10809;49.476;11.016;2023-08-17T08:59:19;122.55;;;116.30;;
21299;SDS011;10809;49.476;11.016;2023-08-17T09:01:50;119.25;;;113.13;;
21299;SDS011;10809;49.476;11.016;2023-08-17T09:04:20;121.07;;;114.63;;
21299;SDS011;10809;49.476;11.016;2023-08-17T09:06:51;109.50;;;103.75;;
21299;SDS011;10809;49.476;11.016;2023-08-17T09:09:23;110.70;;;105.03;;
21299;SDS011;10809;49.476;11.016;2023-08-17T09:11:53;111.72;;;106.05;;
21299;SDS011;10809;49.476;11.016;2023-08-17T09:14:23;107.15;;;101.70;;
21299;SDS011;10809;49.476;11.016;2023-08-17T09:16:54;105.70;;;100.35;;
21299;SDS011;10809;49.476;11.016;2023-08-17T09:19:24;107.30;;;101.65;;
21299;SDS011;10809;49.476;11.016;2023-08-17T09:21:58;101.85;;;96.75;;
21299;SDS011;10809;49.476;11.016;2023-08-17T09:27:14;98.18;;;93.15;;
21299;SDS011;10809;49.476;11.016;2023-08-17T09:29:44;94.80;;;90.03;;
21299;SDS011;10809;49.476;11.016;2023-08-17T09:32:18;88.53;;;84.18;;
21299;SDS011;10809;49.476;11.016;2023-08-17T09:34:49;94.68;;;89.90;;
21299;SDS011;10809;49.476;11.016;2023-08-17T09:37:19;90.65;;;85.93;;
21299;SDS011;10809;49.476;11.016;2023-08-17T09:39:49;90.93;;;86.38;;
21299;SDS011;10809;49.476;11.016;2023-08-17T09:42:20;84.60;;;80.30;;
21299;SDS011;10809;49.476;11.016;2023-08-17T09:44:55;92.22;;;87.53;;
21299;SDS011;10809;49.476;11.016;2023-08-17T09:47:30;87.97;;;83.53;;
21299;SDS011;10809;49.476;11.016;2023-08-17T09:50:02;93.75;;;89.05;;
21299;SDS011;10809;49.476;11.016;2023-08-17T09:52:44;98.78;;;93.78;;
21299;SDS011;10809;49.476;11.016;2023-08-17T09:55:15;88.88;;;84.38;;
21299;SDS011;10809;49.476;11.016;2023-08-17T09:57:45;101.75;;;96.63;;
21299;SDS011;10809;49.476;11.016;2023-08-17T10:00:19;89.13;;;84.65;;
21299;SDS011;10809;49.476;11.016;2023-08-17T10:02:50;94.30;;;89.43;;
21299;SDS011;10809;49.476;11.016;2023-08-17T10:05:23;90.80;;;86.28;;
21299;SDS011;10809;49.476;11.016;2023-08-17T10:07:57;101.75;;;96.65;;
21299;SDS011;10809;49.476;11.016;2023-08-17T10:10:29;96.93;;;92.03;;
21299;SDS011;10809;49.476;11.016;2023-08-17T10:15:45;88.95;;;84.45;;
21299;SDS011;10809;49.476;11.016;2023-08-17T10:21:29;91.53;;;87.03;;
21299;SDS011;10809;49.476;11.016;2023-08-17T10:24:09;93.05;;;88.47;;
21299;SDS011;10809;49.476;11.016;2023-08-17T10:26:41;92.57;;;87.93;;
21299;SDS011;10809;49.476;11.016;2023-08-17T10:29:15;88.30;;;83.68;;
21299;SDS011;10809;49.476;11.016;2023-08-17T10:31:46;90.63;;;86.07;;
21299;SDS011;10809;49.476;11.016;2023-08-17T10:34:18;91.30;;;86.75;;
21299;SDS011;10809;49.476;11.016;2023-08-17T10:36:49;92.05;;;87.47;;
21299;SDS011;10809;49.476;11.016;2023-08-17T10:39:20;83.95;;;79.85;;
21299;SDS011;10809;49.476;11.016;2023-08-17T10:41:55;93.32;;;88.68;;
21299;SDS011;10809;49.476;11.016;2023-08-17T10:44:40;84.38;;;80.13;;
21299;SDS011;10809;49.476;11.016;2023-08-17T10:47:25;85.10;;;80.82;;
21299;SDS011;10809;49.476;11.016;2023-08-17T10:50:03;90.78;;;86.18;;
21299;SDS011;10809;49.476;11.016;2023-08-17T10:52:36;86.82;;;82.35;;
21299;SDS011;10809;49.476;11.016;2023-08-17T10:55:10;87.55;;;82.90;;
21299;SDS011;10809;49.476;11.016;2023-08-17T10:57:42;91.07;;;86.50;;
21299;SDS011;10809;49.476;11.016;2023-08-17T11:00:21;84.60;;;80.47;;
21299;SDS011;10809;49.476;11.016;2023-08-17T11:03:23;86.53;;;82.25;;
21299;SDS011;10809;49.476;11.016;2023-08-17T11:05:53;88.32;;;83.95;;
21299;SDS011;10809;49.476;11.016;2023-08-17T11:08:31;90.07;;;85.55;;
21299;SDS011;10809;49.476;11.016;2023-08-17T11:11:09;92.90;;;88.13;;
21299;SDS011;10809;49.476;11.016;2023-08-17T11:13:44;92.13;;;87.38;;
21299;SDS011;10809;49.476;11.016;2023-08-17T11:16:16;85.72;;;81.38;;
21299;SDS011;10809;49.476;11.016;2023-08-17T11:18:52;93.00;;;88.38;;
21299;SDS011;10809;49.476;11.016;2023-08-17T11:21:22;90.80;;;86.20;;
21299;SDS011;10809;49.476;11.016;2023-08-17T11:23:55;91.28;;;86.65;;
21299;SDS011;10809;49.476;11.016;2023-08-17T11:26:25;95.85;;;91.03;;
21299;SDS011;10809;49.476;11.016;2023-08-17T11:28:56;96.13;;;91.43;;
21299;SDS011;10809;49.476;11.016;2023-08-17T11:31:27;87.97;;;83.50;;
21299;SDS011;10809;49.476;11.016;2023-08-17T11:33:58;100.18;;;95.13;;
21299;SDS011;10809;49.476;11.016;2023-08-17T11:36:28;90.93;;;86.25;;
21299;SDS011;10809;49.476;11.016;2023-08-17T11:38:58;102.57;;;97.43;;
21299;SDS011;10809;49.476;11.016;2023-08-17T11:41:29;98.05;;;93.10;;
21299;SDS011;10809;49.476;11.016;2023-08-17T11:43:59;97.07;;;92.22;;
21299;SDS011;10809;49.476;11.016;2023-08-17T11:46:29;94.75;;;89.97;;
21299;SDS011;10809;49.476;11.016;2023-08-17T11:49:02;88.38;;;83.97;;
21299;SDS011;10809;49.476;11.016;2023-08-17T11:51:32;101.07;;;96.05;;
21299;SDS011;10809;49.476;11.016;2023-08-17T11:54:02;97.85;;;92.78;;
21299;SDS011;10809;49.476;11.016;2023-08-17T11:56:34;100.88;;;95.82;;
21299;SDS011;10809;49.476;11.016;2023-08-17T11:59:10;92.28;;;87.50;;
21299;SDS011;10809;49.476;11.016;2023-08-17T12:01:44;99.90;;;94.90;;
21299;SDS011;10809;49.476;11.016;2023-08-17T12:04:14;101.18;;;95.82;;
21299;SDS011;10809;49.476;11.016;2023-08-17T12:06:45;102.72;;;97.40;;
21299;SDS011;10809;49.476;11.016;2023-08-17T12:09:15;96.88;;;91.95;;
21299;SDS011;10809;49.476;11.016;2023-08-17T12:11:46;95.45;;;90.63;;
21299;SDS011;10809;49.476;11.016;2023-08-17T12:14:16;102.55;;;97.43;;
21299;SDS011;10809;49.476;11.016;2023-08-17T12:16:47;98.50;;;93.55;;
21299;SDS011;10809;49.476;11.016;2023-08-17T12:19:24;105.82;;;100.43;;
21299;SDS011;10809;49.476;11.016;2023-08-17T12:21:55;100.53;;;95.53;;
21299;SDS011;10809;49.476;11.016;2023-08-17T12:24:26;101.53;;;96.40;;
21299;SDS011;10809;49.476;11.016;2023-08-17T12:26:57;99.63;;;94.63;;
21299;SDS011;10809;49.476;11.016;2023-08-17T12:29:29;103.25;;;98.05;;
21299;SDS011;10809;49.476;11.016;2023-08-17T12:32:02;96.10;;;91.28;;
21299;SDS011;10809;49.476;11.016;2023-08-17T12:34:34;102.05;;;96.60;;
21299;SDS011;10809;49.476;11.016;2023-08-17T12:37:04;103.35;;;97.97;;
21299;SDS011;10809;49.476;11.016;2023-08-17T12:39:35;97.63;;;92.75;;
21299;SDS011;10809;49.476;11.016;2023-08-17T12:42:05;106.78;;;101.22;;
21299;SDS011;10809;49.476;11.016;2023-08-17T12:44:36;100.95;;;95.93;;
21299;SDS011;10809;49.476;11.016;2023-08-17T12:47:06;97.10;;;92.25;;
21299;SDS011;10809;49.476;11.016;2023-08-17T12:49:40;103.53;;;98.22;;
21299;SDS011;10809;49.476;11.016;2023-08-17T12:52:10;106.65;;;101.25;;
21299;SDS011;10809;49.476;11.016;2023-08-17T12:54:40;108.22;;;102.75;;
21299;SDS011;10809;49.476;11.016;2023-08-17T12:57:11;103.43;;;98.30;;
21299;SDS011;10809;49.476;11.016;2023-08-17T12:59:41;111.72;;;106.18;;
21299;SDS011;10809;49.476;11.016;2023-08-17T13:02:11;101.88;;;96.70;;
21299;SDS011;10809;49.476;11.016;2023-08-17T13:04:42;103.80;;;98.60;;
21299;SDS011;10809;49.476;11.016;2023-08-17T13:07:12;105.15;;;99.85;;
21299;SDS011;10809;49.476;11.016;2023-08-17T13:09:42;96.13;;;91.20;;
21299;SDS011;10809;49.476;11.016;2023-08-17T13:12:13;104.20;;;99.05;;
21299;SDS011;10809;49.476;11.016;2023-08-17T13:14:43;105.85;;;100.57;;
21299;SDS011;10809;49.476;11.016;2023-08-17T13:17:14;100.95;;;95.63;;
21299;SDS011;10809;49.476;11.016;2023-08-17T13:19:46;109.20;;;103.82;;
21299;SDS011;10809;49.476;11.016;2023-08-17T13:22:16;104.07;;;98.82;;
21299;SDS011;10809;49.476;11.016;2023-08-17T13:24:47;97.50;;;92.75;;
21299;SDS011;10809;49.476;11.016;2023-08-17T13:27:17;103.90;;;98.78;;
21299;SDS011;10809;49.476;11.016;2023-08-17T13:29:47;107.95;;;102.57;;
21299;SDS011;10809;49.476;11.016;2023-08-17T13:32:21;112.93;;;107.32;;
21299;SDS011;10809;49.476;11.016;2023-08-17T13:34:51;120.25;;;114.10;;
21299;SDS011;10809;49.476;11.016;2023-08-17T13:37:22;109.60;;;103.95;;
21299;SDS011;10809;49.476;11.016;2023-08-17T13:39:52;111.85;;;106.18;;
21299;SDS011;10809;49.476;11.016;2023-08-17T13:42:23;110.10;;;104.45;;
21299;SDS011;10809;49.476;11.016;2023-08-17T13:44:53;106.65;;;101.28;;
21299;SDS011;10809;49.476;11.016;2023-08-17T13:47:23;114.60;;;108.78;;
21299;SDS011;10809;49.476;11.016;2023-08-17T13:49:54;106.55;;;101.25;;
21299;SDS011;10809;49.476;11.016;2023-08-17T13:52:25;104.28;;;99.03;;
21299;SDS011;10809;49.476;11.016;2023-08-17T13:54:55;119.50;;;113.47;;
21299;SDS011;10809;49.476;11.016;2023-08-17T13:57:25;113.50;;;107.78;;
21299;SDS011;10809;49.476;11.016;2023-08-17T13:59:56;111.57;;;105.97;;
21299;SDS011;10809;49.476;11.016;2023-08-17T14:02:26;86.13;;;81.57;;
21299;SDS011;10809;49.476;11.016;2023-08-17T14:04:56;104.53;;;99.30;;
21299;SDS011;10809;49.476;11.016;2023-08-17T14:07:27;107.53;;;101.68;;
21299;SDS011;10809;49.476;11.016;2023-08-17T14:09:57;106.10;;;100.75;;
21299;SDS011;10809;49.476;11.016;2023-08-17T14:12:28;101.03;;;96.00;;
21299;SDS011;10809;49.476;11.016;2023-08-17T14:14:59;104.65;;;99.35;;
21299;SDS011;10809;49.476;11.016;2023-08-17T14:17:30;106.35;;;101.10;;
21299;SDS011;10809;49.476;11.016;2023-08-17T14:20:00;100.85;;;95.85;;
21299;SDS011;10809;49.476;11.016;2023-08-17T14:22:30;109.60;;;104.15;;
21299;SDS011;10809;49.476;11.016;2023-08-17T14:25:01;106.90;;;101.53;;
21299;SDS011;10809;49.476;11.016;2023-08-17T14:27:33;106.18;;;100.75;;
21299;SDS011;10809;49.476;11.016;2023-08-17T14:30:06;98.68;;;93.28;;
21299;SDS011;10809;49.476;11.016;2023-08-17T14:32:37;105.50;;;100.25;;
21299;SDS011;10809;49.476;11.016;2023-08-17T14:35:10;110.55;;;105.05;;
21299;SDS011;10809;49.476;11.016;2023-08-17T14:37:44;110.20;;;104.63;;
21299;SDS011;10809;49.476;11.016;2023-08-17T14:40:14;111.15;;;105.65;;
21299;SDS011;10809;49.476;11.016;2023-08-17T14:42:44;93.05;;;88.50;;
21299;SDS011;10809;49.476;11.016;2023-08-17T14:45:15;95.13;;;90.43;;
21299;SDS011;10809;49.476;11.016;2023-08-17T14:47:45;93.65;;;89.10;;
21299;SDS011;10809;49.476;11.016;2023-08-17T14:50:19;91.57;;;87.10;;
21299;SDS011;10809;49.476;11.016;2023-08-17T14:52:49;88.88;;;84.28;;
21299;SDS011;10809;49.476;11.016;2023-08-17T14:55:19;90.55;;;86.10;;